sensor_id;sensor_type;location;lat;lon;timestamp;temperature;humidity
758;DHT22;363;48.764;9.172;2022-11-15T00:00:08;10.10;99.90
758;DHT22;363;48.764;9.172;2022-11-15T00:02:35;10.20;99.90
758;DHT22;363;48.764;9.172;2022-11-15T00:05:00;10.40;99.90
758;DHT22;363;48.764;9.172;2022-11-15T00:07:26;10.20;99.90
758;DHT22;363;48.764;9.172;2022-11-15T00:09:52;10.20;99.90
758;DHT22;363;48.764;9.172;2022-11-15T00:12:17;10.30;99.90
758;DHT22;363;48.764;9.172;2022-11-15T00:14:43;10.20;99.90
758;DHT22;363;48.764;9.172;2022-11-15T00:17:09;10.40;99.90
758;DHT22;363;48.764;9.172;2022-11-15T00:19:34;10.50;99.90
758;DHT22;363;48.764;9.172;2022-11-15T00:22:00;10.30;99.90
758;DHT22;363;48.764;9.172;2022-11-15T00:24:26;10.50;99.90
758;DHT22;363;48.764;9.172;2022-11-15T00:26:51;10.40;99.90
758;DHT22;363;48.764;9.172;2022-11-15T00:29:17;10.40;99.90
758;DHT22;363;48.764;9.172;2022-11-15T00:31:43;10.60;99.90
758;DHT22;363;48.764;9.172;2022-11-15T00:34:09;10.60;99.90
758;DHT22;363;48.764;9.172;2022-11-15T00:36:35;10.50;99.90
758;DHT22;363;48.764;9.172;2022-11-15T00:39:03;10.60;99.90
758;DHT22;363;48.764;9.172;2022-11-15T00:41:29;10.40;99.90
758;DHT22;363;48.764;9.172;2022-11-15T00:43:55;10.60;99.90
758;DHT22;363;48.764;9.172;2022-11-15T00:46:21;10.40;99.90
758;DHT22;363;48.764;9.172;2022-11-15T00:48:46;10.50;99.90
758;DHT22;363;48.764;9.172;2022-11-15T00:51:12;10.50;99.90
758;DHT22;363;48.764;9.172;2022-11-15T00:53:38;10.60;99.90
758;DHT22;363;48.764;9.172;2022-11-15T00:56:04;10.20;99.90
758;DHT22;363;48.764;9.172;2022-11-15T00:58:30;10.30;99.90
758;DHT22;363;48.764;9.172;2022-11-15T01:00:56;10.30;99.90
758;DHT22;363;48.764;9.172;2022-11-15T01:03:21;10.40;99.90
758;DHT22;363;48.764;9.172;2022-11-15T01:05:47;10.40;99.90
758;DHT22;363;48.764;9.172;2022-11-15T01:08:14;10.30;99.90
758;DHT22;363;48.764;9.172;2022-11-15T01:10:40;10.20;99.90
758;DHT22;363;48.764;9.172;2022-11-15T01:13:06;10.30;99.90
758;DHT22;363;48.764;9.172;2022-11-15T01:15:32;10.10;99.90
758;DHT22;363;48.764;9.172;2022-11-15T01:17:57;10.00;99.90
758;DHT22;363;48.764;9.172;2022-11-15T01:20:23;9.90;99.90
758;DHT22;363;48.764;9.172;2022-11-15T01:22:48;9.80;99.90
758;DHT22;363;48.764;9.172;2022-11-15T01:25:14;9.80;99.90
758;DHT22;363;48.764;9.172;2022-11-15T01:27:40;9.90;99.90
758;DHT22;363;48.764;9.172;2022-11-15T01:30:06;9.60;99.90
758;DHT22;363;48.764;9.172;2022-11-15T01:32:32;9.50;99.90
758;DHT22;363;48.764;9.172;2022-11-15T01:34:57;9.60;99.90
758;DHT22;363;48.764;9.172;2022-11-15T01:37:23;9.40;99.90
758;DHT22;363;48.764;9.172;2022-11-15T01:39:49;9.20;99.90
758;DHT22;363;48.764;9.172;2022-11-15T01:42:14;9.10;99.90
758;DHT22;363;48.764;9.172;2022-11-15T01:44:48;9.30;99.90
758;DHT22;363;48.764;9.172;2022-11-15T01:47:20;9.20;99.90
758;DHT22;363;48.764;9.172;2022-11-15T01:50:06;9.10;99.90
758;DHT22;363;48.764;9.172;2022-11-15T01:52:34;9.00;99.90
758;DHT22;363;48.764;9.172;2022-11-15T01:55:20;8.90;99.90
758;DHT22;363;48.764;9.172;2022-11-15T01:57:48;8.70;99.90
758;DHT22;363;48.764;9.172;2022-11-15T02:00:16;9.00;99.90
758;DHT22;363;48.764;9.172;2022-11-15T02:02:41;9.00;99.90
758;DHT22;363;48.764;9.172;2022-11-15T02:05:08;9.00;99.90
758;DHT22;363;48.764;9.172;2022-11-15T02:07:35;8.90;99.90
758;DHT22;363;48.764;9.172;2022-11-15T02:10:14;8.50;99.90
758;DHT22;363;48.764;9.172;2022-11-15T02:12:42;8.70;99.90
758;DHT22;363;48.764;9.172;2022-11-15T02:15:09;8.80;99.90
758;DHT22;363;48.764;9.172;2022-11-15T02:21:20;8.80;99.90
758;DHT22;363;48.764;9.172;2022-11-15T02:29:10;8.70;99.90
758;DHT22;363;48.764;9.172;2022-11-15T02:37:39;8.80;99.90
758;DHT22;363;48.764;9.172;2022-11-15T02:42:57;8.80;99.90
758;DHT22;363;48.764;9.172;2022-11-15T02:45:48;8.70;99.90
758;DHT22;363;48.764;9.172;2022-11-15T02:48:16;8.70;99.90
758;DHT22;363;48.764;9.172;2022-11-15T02:50:43;8.90;99.90
758;DHT22;363;48.764;9.172;2022-11-15T02:53:09;9.00;99.90
758;DHT22;363;48.764;9.172;2022-11-15T02:55:45;9.00;99.90
758;DHT22;363;48.764;9.172;2022-11-15T03:09:34;9.10;99.90
758;DHT22;363;48.764;9.172;2022-11-15T03:12:30;8.90;99.90
758;DHT22;363;48.764;9.172;2022-11-15T03:15:29;8.80;99.90
758;DHT22;363;48.764;9.172;2022-11-15T03:18:21;8.90;99.90
758;DHT22;363;48.764;9.172;2022-11-15T03:20:50;8.80;99.90
758;DHT22;363;48.764;9.172;2022-11-15T03:23:17;8.60;99.90
758;DHT22;363;48.764;9.172;2022-11-15T03:25:46;8.70;99.90
758;DHT22;363;48.764;9.172;2022-11-15T03:28:18;8.80;99.90
758;DHT22;363;48.764;9.172;2022-11-15T03:30:46;8.80;99.90
758;DHT22;363;48.764;9.172;2022-11-15T03:33:13;9.00;99.90
758;DHT22;363;48.764;9.172;2022-11-15T03:35:43;8.80;99.90
758;DHT22;363;48.764;9.172;2022-11-15T03:38:23;8.70;99.90
758;DHT22;363;48.764;9.172;2022-11-15T03:41:00;8.70;99.90
758;DHT22;363;48.764;9.172;2022-11-15T03:43:48;8.90;99.90
758;DHT22;363;48.764;9.172;2022-11-15T03:46:21;8.90;99.90
758;DHT22;363;48.764;9.172;2022-11-15T03:48:54;9.30;99.90
758;DHT22;363;48.764;9.172;2022-11-15T03:51:22;8.80;99.90
758;DHT22;363;48.764;9.172;2022-11-15T03:53:47;9.20;99.90
758;DHT22;363;48.764;9.172;2022-11-15T03:56:13;9.20;99.90
758;DHT22;363;48.764;9.172;2022-11-15T03:58:39;9.30;99.90
758;DHT22;363;48.764;9.172;2022-11-15T04:01:04;9.20;99.90
758;DHT22;363;48.764;9.172;2022-11-15T04:03:30;9.20;99.90
758;DHT22;363;48.764;9.172;2022-11-15T04:05:56;9.20;99.90
758;DHT22;363;48.764;9.172;2022-11-15T04:08:21;9.20;99.90
758;DHT22;363;48.764;9.172;2022-11-15T04:10:49;9.30;99.90
758;DHT22;363;48.764;9.172;2022-11-15T04:13:14;9.10;99.90
758;DHT22;363;48.764;9.172;2022-11-15T04:15:40;9.00;99.90
758;DHT22;363;48.764;9.172;2022-11-15T04:18:06;9.00;99.90
758;DHT22;363;48.764;9.172;2022-11-15T04:20:32;9.20;99.90
758;DHT22;363;48.764;9.172;2022-11-15T04:23:21;9.20;99.90
758;DHT22;363;48.764;9.172;2022-11-15T04:26:14;9.20;99.90
758;DHT22;363;48.764;9.172;2022-11-15T04:28:41;9.00;99.90
758;DHT22;363;48.764;9.172;2022-11-15T04:31:26;9.30;99.90
758;DHT22;363;48.764;9.172;2022-11-15T04:33:52;8.90;99.90
758;DHT22;363;48.764;9.172;2022-11-15T04:36:18;9.10;99.90
758;DHT22;363;48.764;9.172;2022-11-15T04:39:03;9.30;99.90
758;DHT22;363;48.764;9.172;2022-11-15T04:41:28;9.20;99.90
758;DHT22;363;48.764;9.172;2022-11-15T04:43:54;9.30;99.90
758;DHT22;363;48.764;9.172;2022-11-15T04:46:21;9.30;99.90
758;DHT22;363;48.764;9.172;2022-11-15T04:48:46;9.10;99.90
758;DHT22;363;48.764;9.172;2022-11-15T04:51:12;9.20;99.90
758;DHT22;363;48.764;9.172;2022-11-15T04:53:38;9.10;99.90
758;DHT22;363;48.764;9.172;2022-11-15T04:56:04;9.20;99.90
758;DHT22;363;48.764;9.172;2022-11-15T04:58:29;9.10;99.90
758;DHT22;363;48.764;9.172;2022-11-15T05:00:55;9.20;99.90
758;DHT22;363;48.764;9.172;2022-11-15T05:03:21;9.10;99.90
758;DHT22;363;48.764;9.172;2022-11-15T05:06:06;9.00;99.90
758;DHT22;363;48.764;9.172;2022-11-15T05:08:32;9.00;99.90
758;DHT22;363;48.764;9.172;2022-11-15T05:10:57;9.10;99.90
758;DHT22;363;48.764;9.172;2022-11-15T05:13:23;9.30;99.90
758;DHT22;363;48.764;9.172;2022-11-15T05:15:49;9.20;99.90
758;DHT22;363;48.764;9.172;2022-11-15T05:18:14;9.10;99.90
758;DHT22;363;48.764;9.172;2022-11-15T05:20:40;9.20;99.90
758;DHT22;363;48.764;9.172;2022-11-15T05:23:06;9.20;99.90
758;DHT22;363;48.764;9.172;2022-11-15T05:25:31;9.10;99.90
758;DHT22;363;48.764;9.172;2022-11-15T05:27:57;9.10;99.90
758;DHT22;363;48.764;9.172;2022-11-15T05:30:23;8.60;99.90
758;DHT22;363;48.764;9.172;2022-11-15T05:32:49;8.90;99.90
758;DHT22;363;48.764;9.172;2022-11-15T05:35:39;8.90;99.90
758;DHT22;363;48.764;9.172;2022-11-15T05:38:07;8.90;99.90
758;DHT22;363;48.764;9.172;2022-11-15T05:40:33;9.00;99.90
758;DHT22;363;48.764;9.172;2022-11-15T05:43:02;9.00;99.90
758;DHT22;363;48.764;9.172;2022-11-15T05:45:29;9.00;99.90
758;DHT22;363;48.764;9.172;2022-11-15T05:47:56;9.00;99.90
758;DHT22;363;48.764;9.172;2022-11-15T05:50:24;8.90;99.90
758;DHT22;363;48.764;9.172;2022-11-15T05:52:50;9.30;99.90
758;DHT22;363;48.764;9.172;2022-11-15T05:55:16;9.20;99.90
758;DHT22;363;48.764;9.172;2022-11-15T05:57:42;9.20;99.90
758;DHT22;363;48.764;9.172;2022-11-15T06:00:09;9.10;99.90
758;DHT22;363;48.764;9.172;2022-11-15T06:02:35;9.10;99.90
758;DHT22;363;48.764;9.172;2022-11-15T06:05:00;9.30;99.90
758;DHT22;363;48.764;9.172;2022-11-15T06:07:26;9.30;99.90
758;DHT22;363;48.764;9.172;2022-11-15T06:09:52;9.50;99.90
758;DHT22;363;48.764;9.172;2022-11-15T06:12:17;9.60;99.90
758;DHT22;363;48.764;9.172;2022-11-15T06:14:43;9.40;99.90
758;DHT22;363;48.764;9.172;2022-11-15T06:17:09;9.30;99.90
758;DHT22;363;48.764;9.172;2022-11-15T06:19:34;9.50;99.90
758;DHT22;363;48.764;9.172;2022-11-15T06:22:00;9.20;99.90
758;DHT22;363;48.764;9.172;2022-11-15T06:24:26;9.40;99.90
758;DHT22;363;48.764;9.172;2022-11-15T06:26:51;9.20;99.90
758;DHT22;363;48.764;9.172;2022-11-15T06:29:17;9.40;99.90
758;DHT22;363;48.764;9.172;2022-11-15T06:31:43;9.40;99.90
758;DHT22;363;48.764;9.172;2022-11-15T06:34:09;9.20;99.90
758;DHT22;363;48.764;9.172;2022-11-15T06:36:35;9.10;99.90
758;DHT22;363;48.764;9.172;2022-11-15T06:39:05;9.00;99.90
758;DHT22;363;48.764;9.172;2022-11-15T06:41:33;9.20;99.90
758;DHT22;363;48.764;9.172;2022-11-15T06:43:58;9.20;99.90
758;DHT22;363;48.764;9.172;2022-11-15T06:46:24;9.00;99.90
758;DHT22;363;48.764;9.172;2022-11-15T06:48:53;9.10;99.90
758;DHT22;363;48.764;9.172;2022-11-15T06:51:19;9.10;99.90
758;DHT22;363;48.764;9.172;2022-11-15T06:53:45;9.20;99.90
758;DHT22;363;48.764;9.172;2022-11-15T06:56:11;9.30;99.90
758;DHT22;363;48.764;9.172;2022-11-15T06:58:37;9.40;99.90
758;DHT22;363;48.764;9.172;2022-11-15T07:01:05;9.50;99.90
758;DHT22;363;48.764;9.172;2022-11-15T07:03:33;9.70;99.90
758;DHT22;363;48.764;9.172;2022-11-15T07:05:59;9.90;99.90
758;DHT22;363;48.764;9.172;2022-11-15T07:08:27;9.50;99.90
758;DHT22;363;48.764;9.172;2022-11-15T07:10:58;9.70;99.90
758;DHT22;363;48.764;9.172;2022-11-15T07:13:26;9.50;99.90
758;DHT22;363;48.764;9.172;2022-11-15T07:15:52;9.60;99.90
758;DHT22;363;48.764;9.172;2022-11-15T07:18:18;10.10;99.90
758;DHT22;363;48.764;9.172;2022-11-15T07:20:44;10.10;99.90
758;DHT22;363;48.764;9.172;2022-11-15T07:23:09;10.20;99.90
758;DHT22;363;48.764;9.172;2022-11-15T07:25:35;10.10;99.90
758;DHT22;363;48.764;9.172;2022-11-15T07:28:01;10.20;99.90
758;DHT22;363;48.764;9.172;2022-11-15T07:30:27;10.10;99.90
758;DHT22;363;48.764;9.172;2022-11-15T07:32:57;10.40;99.90
758;DHT22;363;48.764;9.172;2022-11-15T07:35:23;10.40;99.90
758;DHT22;363;48.764;9.172;2022-11-15T07:38:01;10.40;99.90
758;DHT22;363;48.764;9.172;2022-11-15T07:40:29;10.60;99.90
758;DHT22;363;48.764;9.172;2022-11-15T07:43:04;10.70;99.90
758;DHT22;363;48.764;9.172;2022-11-15T07:45:30;11.10;99.90
758;DHT22;363;48.764;9.172;2022-11-15T07:47:56;11.20;99.90
758;DHT22;363;48.764;9.172;2022-11-15T07:50:23;11.50;99.90
758;DHT22;363;48.764;9.172;2022-11-15T07:52:56;11.30;99.90
758;DHT22;363;48.764;9.172;2022-11-15T07:55:23;11.50;99.90
758;DHT22;363;48.764;9.172;2022-11-15T07:57:49;11.70;99.90
758;DHT22;363;48.764;9.172;2022-11-15T08:00:14;12.00;99.90
758;DHT22;363;48.764;9.172;2022-11-15T08:02:41;11.90;99.90
758;DHT22;363;48.764;9.172;2022-11-15T08:05:07;12.10;99.90
758;DHT22;363;48.764;9.172;2022-11-15T08:07:32;12.40;99.90
758;DHT22;363;48.764;9.172;2022-11-15T08:09:58;12.20;99.90
758;DHT22;363;48.764;9.172;2022-11-15T08:12:24;12.20;99.90
758;DHT22;363;48.764;9.172;2022-11-15T08:14:49;12.60;99.90
758;DHT22;363;48.764;9.172;2022-11-15T08:17:15;12.90;99.90
758;DHT22;363;48.764;9.172;2022-11-15T08:19:41;12.60;99.90
758;DHT22;363;48.764;9.172;2022-11-15T08:22:07;12.80;99.90
758;DHT22;363;48.764;9.172;2022-11-15T08:24:33;13.00;99.90
758;DHT22;363;48.764;9.172;2022-11-15T08:26:59;12.80;99.90
758;DHT22;363;48.764;9.172;2022-11-15T08:29:25;13.00;99.90
758;DHT22;363;48.764;9.172;2022-11-15T08:31:50;12.70;99.90
758;DHT22;363;48.764;9.172;2022-11-15T08:34:16;12.70;99.90
758;DHT22;363;48.764;9.172;2022-11-15T08:36:42;12.60;99.90
758;DHT22;363;48.764;9.172;2022-11-15T08:39:10;12.90;99.90
758;DHT22;363;48.764;9.172;2022-11-15T08:41:37;13.10;99.90
758;DHT22;363;48.764;9.172;2022-11-15T08:44:03;12.80;99.90
758;DHT22;363;48.764;9.172;2022-11-15T08:46:28;12.90;99.90
758;DHT22;363;48.764;9.172;2022-11-15T08:48:54;13.10;99.90
758;DHT22;363;48.764;9.172;2022-11-15T08:51:19;13.00;99.90
758;DHT22;363;48.764;9.172;2022-11-15T08:53:45;13.10;99.90
758;DHT22;363;48.764;9.172;2022-11-15T08:56:13;13.30;99.90
758;DHT22;363;48.764;9.172;2022-11-15T08:58:39;13.40;99.90
758;DHT22;363;48.764;9.172;2022-11-15T09:01:05;13.40;99.90
758;DHT22;363;48.764;9.172;2022-11-15T09:03:31;13.70;99.90
758;DHT22;363;48.764;9.172;2022-11-15T09:05:58;13.90;99.90
758;DHT22;363;48.764;9.172;2022-11-15T09:08:28;14.40;99.90
758;DHT22;363;48.764;9.172;2022-11-15T09:10:55;14.70;99.90
758;DHT22;363;48.764;9.172;2022-11-15T09:13:21;15.30;99.90
758;DHT22;363;48.764;9.172;2022-11-15T09:15:47;15.50;99.10
758;DHT22;363;48.764;9.172;2022-11-15T09:18:12;15.80;99.90
758;DHT22;363;48.764;9.172;2022-11-15T09:20:38;15.90;98.40
758;DHT22;363;48.764;9.172;2022-11-15T09:23:05;15.60;98.20
758;DHT22;363;48.764;9.172;2022-11-15T09:25:31;16.30;98.30
758;DHT22;363;48.764;9.172;2022-11-15T09:27:57;16.40;97.40
758;DHT22;363;48.764;9.172;2022-11-15T09:30:24;16.50;96.90
758;DHT22;363;48.764;9.172;2022-11-15T09:32:50;16.60;95.70
758;DHT22;363;48.764;9.172;2022-11-15T09:35:16;16.60;96.10
758;DHT22;363;48.764;9.172;2022-11-15T09:37:41;16.80;96.00
758;DHT22;363;48.764;9.172;2022-11-15T09:40:11;17.00;95.30
758;DHT22;363;48.764;9.172;2022-11-15T09:45:50;17.60;94.40
758;DHT22;363;48.764;9.172;2022-11-15T09:51:03;17.80;94.00
758;DHT22;363;48.764;9.172;2022-11-15T09:53:34;17.80;93.30
758;DHT22;363;48.764;9.172;2022-11-15T09:56:14;17.90;93.10
758;DHT22;363;48.764;9.172;2022-11-15T10:04:33;17.30;93.10
758;DHT22;363;48.764;9.172;2022-11-15T10:07:25;17.20;93.40
758;DHT22;363;48.764;9.172;2022-11-15T10:09:55;17.50;92.90
758;DHT22;363;48.764;9.172;2022-11-15T10:12:23;17.50;93.00
758;DHT22;363;48.764;9.172;2022-11-15T10:14:53;17.60;93.10
758;DHT22;363;48.764;9.172;2022-11-15T10:18:04;17.60;93.70
758;DHT22;363;48.764;9.172;2022-11-15T10:20:36;17.50;93.40
758;DHT22;363;48.764;9.172;2022-11-15T10:23:06;17.50;92.90
758;DHT22;363;48.764;9.172;2022-11-15T10:25:35;17.60;92.60
758;DHT22;363;48.764;9.172;2022-11-15T10:28:17;17.60;92.80
758;DHT22;363;48.764;9.172;2022-11-15T10:30:52;17.40;93.20
758;DHT22;363;48.764;9.172;2022-11-15T10:33:33;17.40;93.50
758;DHT22;363;48.764;9.172;2022-11-15T10:46:45;17.10;93.20
758;DHT22;363;48.764;9.172;2022-11-15T10:49:18;17.10;93.60
758;DHT22;363;48.764;9.172;2022-11-15T10:51:49;17.40;94.00
758;DHT22;363;48.764;9.172;2022-11-15T10:54:34;17.40;93.80
758;DHT22;363;48.764;9.172;2022-11-15T10:57:12;17.60;94.10
758;DHT22;363;48.764;9.172;2022-11-15T10:59:38;17.50;94.10
758;DHT22;363;48.764;9.172;2022-11-15T11:02:34;17.60;93.80
758;DHT22;363;48.764;9.172;2022-11-15T11:05:01;17.60;93.70
758;DHT22;363;48.764;9.172;2022-11-15T11:07:30;17.40;94.10
758;DHT22;363;48.764;9.172;2022-11-15T11:10:22;17.20;94.40
758;DHT22;363;48.764;9.172;2022-11-15T11:12:47;17.40;95.00
758;DHT22;363;48.764;9.172;2022-11-15T11:15:15;17.20;94.30
758;DHT22;363;48.764;9.172;2022-11-15T11:18:03;16.70;94.00
758;DHT22;363;48.764;9.172;2022-11-15T11:20:41;17.00;94.40
758;DHT22;363;48.764;9.172;2022-11-15T11:23:23;17.10;94.30
758;DHT22;363;48.764;9.172;2022-11-15T11:31:30;16.90;95.40
758;DHT22;363;48.764;9.172;2022-11-15T11:40:19;16.90;95.30
758;DHT22;363;48.764;9.172;2022-11-15T11:48:07;17.10;95.30
758;DHT22;363;48.764;9.172;2022-11-15T11:50:37;16.90;95.40
758;DHT22;363;48.764;9.172;2022-11-15T11:53:14;17.00;95.60
758;DHT22;363;48.764;9.172;2022-11-15T11:55:47;17.30;95.40
758;DHT22;363;48.764;9.172;2022-11-15T12:06:54;17.50;95.10
758;DHT22;363;48.764;9.172;2022-11-15T12:09:35;17.70;95.30
758;DHT22;363;48.764;9.172;2022-11-15T12:12:35;17.70;95.00
758;DHT22;363;48.764;9.172;2022-11-15T12:17:36;17.50;94.90
758;DHT22;363;48.764;9.172;2022-11-15T12:33:46;17.40;95.70
758;DHT22;363;48.764;9.172;2022-11-15T12:39:05;17.40;96.10
758;DHT22;363;48.764;9.172;2022-11-15T12:41:36;17.10;95.90
758;DHT22;363;48.764;9.172;2022-11-15T12:44:03;17.20;96.40
758;DHT22;363;48.764;9.172;2022-11-15T12:49:01;16.90;96.60
758;DHT22;363;48.764;9.172;2022-11-15T13:02:41;17.00;97.40
758;DHT22;363;48.764;9.172;2022-11-15T13:17:49;16.30;97.30
758;DHT22;363;48.764;9.172;2022-11-15T13:20:18;16.70;97.70
758;DHT22;363;48.764;9.172;2022-11-15T13:23:01;16.60;97.60
758;DHT22;363;48.764;9.172;2022-11-15T13:28:27;16.60;97.80
758;DHT22;363;48.764;9.172;2022-11-15T13:30:56;16.60;98.20
758;DHT22;363;48.764;9.172;2022-11-15T13:33:34;16.50;97.80
758;DHT22;363;48.764;9.172;2022-11-15T13:36:06;16.40;97.80
758;DHT22;363;48.764;9.172;2022-11-15T13:38:38;16.60;97.90
758;DHT22;363;48.764;9.172;2022-11-15T13:41:20;16.60;97.80
758;DHT22;363;48.764;9.172;2022-11-15T13:43:47;16.50;97.90
758;DHT22;363;48.764;9.172;2022-11-15T13:48:40;16.40;97.80
758;DHT22;363;48.764;9.172;2022-11-15T13:53:48;16.30;98.20
758;DHT22;363;48.764;9.172;2022-11-15T13:56:17;16.10;98.30
758;DHT22;363;48.764;9.172;2022-11-15T13:58:44;16.20;98.50
758;DHT22;363;48.764;9.172;2022-11-15T14:01:15;16.20;98.30
758;DHT22;363;48.764;9.172;2022-11-15T14:03:58;16.10;98.60
758;DHT22;363;48.764;9.172;2022-11-15T14:06:26;16.00;99.00
758;DHT22;363;48.764;9.172;2022-11-15T14:11:52;16.10;99.90
758;DHT22;363;48.764;9.172;2022-11-15T14:14:21;16.00;99.90
758;DHT22;363;48.764;9.172;2022-11-15T14:16:50;15.90;99.90
758;DHT22;363;48.764;9.172;2022-11-15T14:22:24;15.50;99.90
758;DHT22;363;48.764;9.172;2022-11-15T14:27:40;15.40;99.90
758;DHT22;363;48.764;9.172;2022-11-15T14:30:11;15.20;99.90
758;DHT22;363;48.764;9.172;2022-11-15T14:32:48;15.20;99.90
758;DHT22;363;48.764;9.172;2022-11-15T14:35:17;15.50;99.90
758;DHT22;363;48.764;9.172;2022-11-15T14:37:44;15.10;99.90
758;DHT22;363;48.764;9.172;2022-11-15T14:40:14;15.40;99.90
758;DHT22;363;48.764;9.172;2022-11-15T14:42:40;15.10;99.90
758;DHT22;363;48.764;9.172;2022-11-15T14:45:15;15.20;99.90
758;DHT22;363;48.764;9.172;2022-11-15T14:47:41;15.30;99.90
758;DHT22;363;48.764;9.172;2022-11-15T14:50:11;15.10;99.90
758;DHT22;363;48.764;9.172;2022-11-15T14:52:37;15.00;99.90
758;DHT22;363;48.764;9.172;2022-11-15T14:55:09;15.00;99.90
758;DHT22;363;48.764;9.172;2022-11-15T14:57:35;15.00;99.90
758;DHT22;363;48.764;9.172;2022-11-15T15:00:01;15.00;99.90
758;DHT22;363;48.764;9.172;2022-11-15T15:02:28;14.90;99.90
758;DHT22;363;48.764;9.172;2022-11-15T15:04:53;14.80;99.90
758;DHT22;363;48.764;9.172;2022-11-15T15:07:19;14.90;99.90
758;DHT22;363;48.764;9.172;2022-11-15T15:09:45;15.00;99.90
758;DHT22;363;48.764;9.172;2022-11-15T15:12:19;14.70;99.90
758;DHT22;363;48.764;9.172;2022-11-15T15:14:45;14.60;99.90
758;DHT22;363;48.764;9.172;2022-11-15T15:17:11;14.80;99.90
758;DHT22;363;48.764;9.172;2022-11-15T15:19:37;14.70;99.90
758;DHT22;363;48.764;9.172;2022-11-15T15:22:03;14.80;99.90
758;DHT22;363;48.764;9.172;2022-11-15T15:24:29;14.80;99.90
758;DHT22;363;48.764;9.172;2022-11-15T15:26:54;14.90;99.90
758;DHT22;363;48.764;9.172;2022-11-15T15:29:20;14.80;99.90
758;DHT22;363;48.764;9.172;2022-11-15T15:31:45;14.90;99.90
758;DHT22;363;48.764;9.172;2022-11-15T15:34:11;14.90;99.90
758;DHT22;363;48.764;9.172;2022-11-15T15:36:36;14.90;99.90
758;DHT22;363;48.764;9.172;2022-11-15T15:39:02;14.70;99.90
758;DHT22;363;48.764;9.172;2022-11-15T15:41:28;14.80;99.90
758;DHT22;363;48.764;9.172;2022-11-15T15:43:53;14.80;99.90
758;DHT22;363;48.764;9.172;2022-11-15T15:46:20;15.00;99.90
758;DHT22;363;48.764;9.172;2022-11-15T15:48:46;15.00;99.90
758;DHT22;363;48.764;9.172;2022-11-15T15:51:12;15.00;99.90
758;DHT22;363;48.764;9.172;2022-11-15T15:53:38;14.80;99.90
758;DHT22;363;48.764;9.172;2022-11-15T15:56:04;14.70;99.90
758;DHT22;363;48.764;9.172;2022-11-15T15:58:30;14.60;99.90
758;DHT22;363;48.764;9.172;2022-11-15T16:00:57;14.60;99.90
758;DHT22;363;48.764;9.172;2022-11-15T16:03:22;14.60;99.90
758;DHT22;363;48.764;9.172;2022-11-15T16:05:49;14.60;99.90
758;DHT22;363;48.764;9.172;2022-11-15T16:08:22;14.70;99.90
758;DHT22;363;48.764;9.172;2022-11-15T16:10:49;14.50;99.90
758;DHT22;363;48.764;9.172;2022-11-15T16:13:15;14.60;99.90
758;DHT22;363;48.764;9.172;2022-11-15T16:15:41;14.50;99.90
758;DHT22;363;48.764;9.172;2022-11-15T16:18:12;14.50;99.90
758;DHT22;363;48.764;9.172;2022-11-15T16:20:43;14.50;99.90
758;DHT22;363;48.764;9.172;2022-11-15T16:23:15;14.50;99.90
758;DHT22;363;48.764;9.172;2022-11-15T16:28:21;14.80;99.90
758;DHT22;363;48.764;9.172;2022-11-15T16:30:49;14.50;99.90
758;DHT22;363;48.764;9.172;2022-11-15T16:33:15;14.80;99.90
758;DHT22;363;48.764;9.172;2022-11-15T16:35:42;14.70;99.90
758;DHT22;363;48.764;9.172;2022-11-15T16:38:14;14.60;99.90
758;DHT22;363;48.764;9.172;2022-11-15T16:40:40;14.50;99.90
758;DHT22;363;48.764;9.172;2022-11-15T16:43:05;14.50;99.90
758;DHT22;363;48.764;9.172;2022-11-15T16:45:33;14.50;99.90
758;DHT22;363;48.764;9.172;2022-11-15T16:47:59;14.70;99.90
758;DHT22;363;48.764;9.172;2022-11-15T16:50:27;14.50;99.90
758;DHT22;363;48.764;9.172;2022-11-15T16:52:55;14.60;99.90
758;DHT22;363;48.764;9.172;2022-11-15T16:55:23;14.50;99.90
758;DHT22;363;48.764;9.172;2022-11-15T16:57:49;14.50;99.90
758;DHT22;363;48.764;9.172;2022-11-15T17:00:17;14.60;99.90
758;DHT22;363;48.764;9.172;2022-11-15T17:02:44;14.50;99.90
758;DHT22;363;48.764;9.172;2022-11-15T17:05:11;14.50;99.90
758;DHT22;363;48.764;9.172;2022-11-15T17:07:37;14.60;99.90
758;DHT22;363;48.764;9.172;2022-11-15T17:10:03;14.40;99.90
758;DHT22;363;48.764;9.172;2022-11-15T17:12:29;14.20;99.90
758;DHT22;363;48.764;9.172;2022-11-15T17:14:55;14.40;99.90
758;DHT22;363;48.764;9.172;2022-11-15T17:17:21;14.40;99.90
758;DHT22;363;48.764;9.172;2022-11-15T17:19:47;14.00;99.90
758;DHT22;363;48.764;9.172;2022-11-15T17:22:13;14.30;99.90
758;DHT22;363;48.764;9.172;2022-11-15T17:24:38;14.30;99.90
758;DHT22;363;48.764;9.172;2022-11-15T17:27:04;14.10;99.90
758;DHT22;363;48.764;9.172;2022-11-15T17:29:29;14.10;99.90
758;DHT22;363;48.764;9.172;2022-11-15T17:31:55;14.20;99.90
758;DHT22;363;48.764;9.172;2022-11-15T17:34:20;13.90;99.90
758;DHT22;363;48.764;9.172;2022-11-15T17:36:47;14.20;99.90
758;DHT22;363;48.764;9.172;2022-11-15T17:39:13;14.30;99.90
758;DHT22;363;48.764;9.172;2022-11-15T17:41:39;14.30;99.90
758;DHT22;363;48.764;9.172;2022-11-15T17:44:04;14.30;99.90
758;DHT22;363;48.764;9.172;2022-11-15T17:46:30;14.10;99.90
758;DHT22;363;48.764;9.172;2022-11-15T17:48:56;14.40;99.90
758;DHT22;363;48.764;9.172;2022-11-15T17:51:22;14.30;99.90
758;DHT22;363;48.764;9.172;2022-11-15T17:53:48;14.30;99.90
758;DHT22;363;48.764;9.172;2022-11-15T17:56:20;14.00;99.90
758;DHT22;363;48.764;9.172;2022-11-15T17:58:56;14.10;99.90
758;DHT22;363;48.764;9.172;2022-11-15T18:01:29;14.10;99.90
758;DHT22;363;48.764;9.172;2022-11-15T18:03:55;14.10;99.90
758;DHT22;363;48.764;9.172;2022-11-15T18:06:22;14.00;99.90
758;DHT22;363;48.764;9.172;2022-11-15T18:08:50;14.00;99.90
758;DHT22;363;48.764;9.172;2022-11-15T18:11:24;14.10;99.90
758;DHT22;363;48.764;9.172;2022-11-15T18:13:53;14.10;99.90
758;DHT22;363;48.764;9.172;2022-11-15T18:16:21;14.10;99.90
758;DHT22;363;48.764;9.172;2022-11-15T18:18:47;13.80;99.90
758;DHT22;363;48.764;9.172;2022-11-15T18:21:18;13.90;99.90
758;DHT22;363;48.764;9.172;2022-11-15T18:23:44;14.00;99.90
758;DHT22;363;48.764;9.172;2022-11-15T18:26:12;13.80;99.90
758;DHT22;363;48.764;9.172;2022-11-15T18:28:40;14.10;99.90
758;DHT22;363;48.764;9.172;2022-11-15T18:31:21;13.70;99.90
758;DHT22;363;48.764;9.172;2022-11-15T18:33:48;14.10;99.90
758;DHT22;363;48.764;9.172;2022-11-15T18:36:25;14.10;99.90
758;DHT22;363;48.764;9.172;2022-11-15T18:38:55;13.90;99.90
758;DHT22;363;48.764;9.172;2022-11-15T18:41:21;14.00;99.90
758;DHT22;363;48.764;9.172;2022-11-15T18:43:50;14.00;99.90
758;DHT22;363;48.764;9.172;2022-11-15T18:46:20;13.60;99.90
758;DHT22;363;48.764;9.172;2022-11-15T18:48:47;14.00;99.90
758;DHT22;363;48.764;9.172;2022-11-15T18:51:19;13.90;99.90
758;DHT22;363;48.764;9.172;2022-11-15T18:53:46;13.70;99.90
758;DHT22;363;48.764;9.172;2022-11-15T18:56:14;13.60;99.90
758;DHT22;363;48.764;9.172;2022-11-15T18:58:42;13.70;99.90
758;DHT22;363;48.764;9.172;2022-11-15T19:03:41;13.60;99.90
758;DHT22;363;48.764;9.172;2022-11-15T19:06:11;14.00;99.90
758;DHT22;363;48.764;9.172;2022-11-15T19:08:39;14.00;99.90
758;DHT22;363;48.764;9.172;2022-11-15T19:11:28;13.90;99.90
758;DHT22;363;48.764;9.172;2022-11-15T19:14:30;13.70;99.90